Time;durP1;ratioP1;P1;durP2;ratioP2;P2;SDS_P1;SDS_P2;PMS_P1;PMS_P2;Temp;Humidity;BMP_temperature;BMP_pressure;BME280_temperature;BME280_humidity;BME280_pressure;Samples;Min_cycle;Max_cycle;Signal;HPM_P1;HPM_P2
2022/03/09 00:00:32;;;;;;;15.90;10.95;;;4.90;47.90;;;;;;5052700;28;20458;-62
2022/03/09 00:02:58;;;;;;;17.20;10.43;;;4.90;47.90;;;;;;5052168;28;20029;-63
2022/03/09 00:05:24;;;;;;;16.60;10.55;;;5.00;47.90;;;;;;5052005;28;20029;-62
2022/03/09 00:07:49;;;;;;;16.45;10.75;;;5.00;47.80;;;;;;5051939;28;20029;-63
2022/03/09 00:10:16;;;;;;;15.90;10.52;;;5.10;47.80;;;;;;5052949;28;20047;-63
2022/03/09 00:12:42;;;;;;;15.95;10.05;;;5.10;47.90;;;;;;5051847;28;20523;-64
2022/03/09 00:15:08;;;;;;;15.07;10.50;;;5.00;48.10;;;;;;5052750;28;20514;-63
2022/03/09 00:17:34;;;;;;;15.88;11.13;;;5.10;48.00;;;;;;5034860;28;20055;-63
2022/03/09 00:20:00;;;;;;;14.85;10.98;;;5.00;48.10;;;;;;5034279;28;20587;-61
2022/03/09 00:22:26;;;;;;;19.67;11.50;;;5.00;48.30;;;;;;5052935;28;20060;-61
2022/03/09 00:24:51;;;;;;;19.48;10.90;;;5.00;48.20;;;;;;5051807;28;20094;-61
2022/03/09 00:27:17;;;;;;;17.13;10.95;;;5.00;48.40;;;;;;5034569;28;20029;-62
2022/03/09 00:29:43;;;;;;;19.70;11.77;;;5.00;48.30;;;;;;5049187;28;20032;-64
2022/03/09 00:32:09;;;;;;;17.63;10.65;;;5.00;48.20;;;;;;5052574;28;20445;-62
2022/03/09 00:34:35;;;;;;;16.27;10.27;;;5.00;48.30;;;;;;5052606;28;20059;-62
2022/03/09 00:37:01;;;;;;;17.73;10.68;;;5.00;48.20;;;;;;5033959;28;20053;-62
2022/03/09 00:39:27;;;;;;;19.05;10.70;;;5.00;48.30;;;;;;5051882;28;20029;-62
2022/03/09 00:41:53;;;;;;;19.90;10.63;;;5.00;48.40;;;;;;5033736;28;20509;-62
2022/03/09 00:44:18;;;;;;;19.75;11.07;;;5.00;48.50;;;;;;5052528;28;20052;-62
2022/03/09 00:46:44;;;;;;;15.88;10.77;;;5.00;48.50;;;;;;5051635;28;20107;-62
2022/03/09 00:49:10;;;;;;;16.35;11.00;;;5.00;48.40;;;;;;5052091;28;20380;-61
2022/03/09 00:51:36;;;;;;;17.30;11.23;;;5.00;48.50;;;;;;5034098;28;20517;-68
2022/03/09 00:54:01;;;;;;;17.08;10.35;;;5.00;48.80;;;;;;5052155;28;20025;-63
2022/03/09 00:56:27;;;;;;;17.60;10.48;;;4.90;48.80;;;;;;5052411;28;20107;-63
2022/03/09 00:58:53;;;;;;;19.13;11.80;;;4.90;48.90;;;;;;5051365;28;20481;-63
2022/03/09 01:01:19;;;;;;;16.17;10.85;;;4.80;49.80;;;;;;5052031;28;20450;-64
2022/03/09 01:03:44;;;;;;;17.67;10.80;;;4.80;49.30;;;;;;5051098;28;20492;-63
2022/03/09 01:06:10;;;;;;;18.98;11.27;;;4.80;49.20;;;;;;5051999;28;20052;-63
2022/03/09 01:08:36;;;;;;;15.23;10.57;;;4.70;49.40;;;;;;5033727;28;20029;-69
2022/03/09 01:11:02;;;;;;;15.73;10.38;;;4.70;49.40;;;;;;5033595;28;20036;-62
2022/03/09 01:13:28;;;;;;;16.60;9.88;;;4.80;49.20;;;;;;5051902;28;20355;-60
2022/03/09 01:15:53;;;;;;;17.60;10.98;;;4.80;49.10;;;;;;5050431;28;20108;-62
2022/03/09 01:18:19;;;;;;;17.80;10.35;;;4.80;48.90;;;;;;5050982;28;20048;-62
2022/03/09 01:20:45;;;;;;;16.20;10.77;;;4.80;48.90;;;;;;5050776;28;20474;-62
2022/03/09 01:23:11;;;;;;;14.38;10.45;;;4.90;48.80;;;;;;5032965;28;20112;-64
2022/03/09 01:25:37;;;;;;;18.33;10.52;;;4.90;48.80;;;;;;5051103;28;20137;-68
2022/03/09 01:28:03;;;;;;;17.40;11.50;;;4.90;48.90;;;;;;5050993;28;20040;-62
2022/03/09 01:30:28;;;;;;;14.38;11.02;;;4.90;48.90;;;;;;5033600;28;20469;-62
2022/03/09 01:32:54;;;;;;;16.52;10.85;;;4.80;48.90;;;;;;5050803;28;20032;-62
2022/03/09 01:35:20;;;;;;;15.38;10.95;;;4.80;48.90;;;;;;5051128;28;20033;-62
2022/03/09 01:37:46;;;;;;;19.88;12.38;;;4.80;48.90;;;;;;5050427;28;20116;-62
2022/03/09 01:40:12;;;;;;;25.20;11.75;;;4.80;49.00;;;;;;5050951;28;20083;-62
2022/03/09 01:42:38;;;;;;;18.70;11.40;;;4.80;49.10;;;;;;5033370;28;20079;-63
2022/03/09 01:45:06;;;;;;;21.30;11.85;;;4.80;49.20;;;;;;5051094;28;20072;-65
2022/03/09 01:47:32;;;;;;;23.17;12.40;;;4.80;49.20;;;;;;5051220;28;20108;-63
2022/03/09 01:49:58;;;;;;;18.52;11.27;;;4.80;49.30;;;;;;5050799;28;20029;-62
2022/03/09 01:52:25;;;;;;;19.60;10.85;;;4.80;49.30;;;;;;5051076;28;20538;-63
2022/03/09 01:54:52;;;;;;;17.17;11.77;;;4.70;49.30;;;;;;5050446;28;20150;-62
2022/03/09 01:57:20;;;;;;;17.48;11.35;;;4.70;49.40;;;;;;5033473;28;20025;-63
2022/03/09 01:59:48;;;;;;;17.63;12.45;;;4.70;49.70;;;;;;5050405;28;20033;-63
2022/03/09 02:02:15;;;;;;;16.70;11.23;;;4.70;49.50;;;;;;5016736;28;20104;-61
2022/03/09 02:04:40;;;;;;;16.70;10.13;;;4.70;49.50;;;;;;5050291;28;20025;-66
2022/03/09 02:07:10;;;;;;;18.60;11.05;;;4.70;49.50;;;;;;5050994;28;20048;-62
2022/03/09 02:09:44;;;;;;;18.27;11.38;;;4.70;49.50;;;;;;5051080;28;20032;-68
2022/03/09 02:12:17;;;;;;;16.02;10.65;;;4.80;49.50;;;;;;5051034;28;20048;-62
2022/03/09 02:14:50;;;;;;;16.50;10.83;;;4.80;49.50;;;;;;5050170;28;20478;-62
2022/03/09 02:17:18;;;;;;;14.77;10.32;;;4.70;49.50;;;;;;5032972;28;20032;-61
2022/03/09 02:19:47;;;;;;;18.15;10.50;;;4.70;49.80;;;;;;5049879;28;20051;-62
2022/03/09 02:22:19;;;;;;;16.60;10.80;;;4.70;49.80;;;;;;5051210;28;20057;-62
2022/03/09 02:24:49;;;;;;;15.43;11.07;;;4.70;50.10;;;;;;5032360;28;20029;-62
2022/03/09 02:27:16;;;;;;;15.25;11.00;;;4.60;50.00;;;;;;5033851;28;20668;-62
2022/03/09 02:29:41;;;;;;;16.50;11.43;;;4.60;50.00;;;;;;5053253;28;20021;-63
2022/03/09 02:32:08;;;;;;;17.45;11.40;;;4.70;50.50;;;;;;5054286;28;20107;-62
2022/03/09 02:34:34;;;;;;;16.73;10.80;;;4.70;49.80;;;;;;5054355;28;20575;-61
2022/03/09 02:37:00;;;;;;;18.20;12.00;;;4.70;49.80;;;;;;5054155;28;20041;-62
2022/03/09 02:39:26;;;;;;;19.67;11.40;;;4.70;49.90;;;;;;5054695;28;20035;-63
2022/03/09 02:41:52;;;;;;;18.25;11.82;;;4.70;49.90;;;;;;5053865;28;20587;-64
2022/03/09 02:44:18;;;;;;;15.63;11.35;;;4.70;49.90;;;;;;5036419;28;20078;-62
2022/03/09 02:46:44;;;;;;;18.55;11.10;;;4.70;49.80;;;;;;5053719;28;20098;-63
2022/03/09 02:49:10;;;;;;;17.90;10.98;;;4.70;49.80;;;;;;5054506;28;20110;-62
2022/03/09 02:51:35;;;;;;;17.45;12.05;;;4.80;49.80;;;;;;5054111;28;20040;-62
2022/03/09 02:54:01;;;;;;;18.23;11.50;;;4.80;49.70;;;;;;5036025;28;20061;-62
2022/03/09 02:56:27;;;;;;;17.52;11.73;;;4.70;49.70;;;;;;5036376;28;20029;-63
2022/03/09 02:58:53;;;;;;;16.50;11.60;;;4.80;49.80;;;;;;5053435;28;20029;-62
2022/03/09 03:01:19;;;;;;;17.15;10.45;;;4.80;49.80;;;;;;5053949;28;20436;-62
2022/03/09 03:03:45;;;;;;;17.80;11.75;;;4.80;49.80;;;;;;5053347;28;20031;-62
2022/03/09 03:06:12;;;;;;;19.13;12.05;;;4.80;49.70;;;;;;5036512;28;20078;-63
2022/03/09 03:08:41;;;;;;;22.13;12.13;;;4.80;49.80;;;;;;5053830;28;20031;-68
2022/03/09 03:11:10;;;;;;;19.13;11.95;;;4.70;49.70;;;;;;5053691;28;20039;-64
2022/03/09 03:13:55;;;;;;;20.80;11.90;;;4.80;49.80;;;;;;5054408;28;20039;-65
2022/03/09 03:16:21;;;;;;;18.60;11.48;;;4.70;49.80;;;;;;5054166;28;20071;-62
2022/03/09 03:18:47;;;;;;;19.42;11.57;;;4.70;49.80;;;;;;5035092;28;20032;-63
2022/03/09 03:21:12;;;;;;;19.77;11.50;;;4.70;49.80;;;;;;5053401;28;20401;-62
2022/03/09 03:23:38;;;;;;;20.73;12.35;;;4.70;49.90;;;;;;5053318;28;20036;-68
2022/03/09 03:26:05;;;;;;;20.60;11.95;;;4.70;50.00;;;;;;5053452;28;20436;-63
2022/03/09 03:28:32;;;;;;;17.80;12.73;;;4.70;50.10;;;;;;5053839;28;20078;-62
2022/03/09 03:30:58;;;;;;;20.10;12.05;;;4.70;50.10;;;;;;5052827;28;20337;-62
2022/03/09 03:33:24;;;;;;;17.73;12.90;;;4.70;50.20;;;;;;5054009;28;20493;-63
2022/03/09 03:35:50;;;;;;;18.55;12.20;;;4.70;50.20;;;;;;5052663;28;20111;-63
2022/03/09 03:38:16;;;;;;;18.05;11.68;;;4.70;50.10;;;;;;5035677;28;20104;-63
2022/03/09 03:40:42;;;;;;;18.33;11.57;;;4.70;50.10;;;;;;5033720;28;20021;-63
2022/03/09 03:43:08;;;;;;;21.98;12.43;;;4.70;50.10;;;;;;5053409;28;20056;-63
2022/03/09 03:45:34;;;;;;;20.73;11.90;;;4.70;50.10;;;;;;5052826;28;20078;-62
2022/03/09 03:48:00;;;;;;;16.88;10.75;;;4.70;50.10;;;;;;5052707;28;20370;-63
2022/03/09 03:50:44;;;;;;;26.25;12.13;;;4.60;50.10;;;;;;5035466;28;20032;-63
2022/03/09 03:53:10;;;;;;;17.67;11.60;;;4.60;50.10;;;;;;5035329;28;20048;-63
2022/03/09 03:55:36;;;;;;;19.92;11.27;;;4.60;50.20;;;;;;5052965;28;20470;-62
2022/03/09 03:58:02;;;;;;;20.00;12.30;;;4.50;50.40;;;;;;5052208;28;20027;-62
2022/03/09 04:00:28;;;;;;;19.35;12.50;;;4.50;50.50;;;;;;5035286;28;20029;-62
2022/03/09 04:02:54;;;;;;;20.13;12.13;;;4.60;50.50;;;;;;5034438;28;20025;-63
2022/03/09 04:05:20;;;;;;;19.13;12.15;;;4.50;50.50;;;;;;5052994;28;20029;-63
2022/03/09 04:07:46;;;;;;;21.73;11.52;;;4.50;50.80;;;;;;5051649;28;20067;-63
2022/03/09 04:10:13;;;;;;;19.00;12.00;;;4.40;50.80;;;;;;5052498;28;20027;-63
2022/03/09 04:12:38;;;;;;;20.00;12.43;;;4.40;51.00;;;;;;5052410;28;20124;-69
2022/03/09 04:15:04;;;;;;;19.80;11.98;;;4.40;50.90;;;;;;5052415;28;20346;-63
2022/03/09 04:17:50;;;;;;;21.38;11.90;;;4.40;50.90;;;;;;5034289;28;20120;-64
2022/03/09 04:20:16;;;;;;;19.52;12.15;;;4.40;51.00;;;;;;5049738;28;20079;-65
2022/03/09 04:22:42;;;;;;;19.25;12.10;;;4.40;51.20;;;;;;5033928;28;20033;-67
2022/03/09 04:25:09;;;;;;;18.35;11.48;;;4.40;51.00;;;;;;5052177;28;20036;-62
2022/03/09 04:27:35;;;;;;;19.83;11.43;;;4.40;51.00;;;;;;5052178;28;20028;-62
2022/03/09 04:30:01;;;;;;;19.77;12.13;;;4.40;51.00;;;;;;5051631;28;20190;-62
2022/03/09 04:32:27;;;;;;;20.50;11.32;;;4.40;51.00;;;;;;5033978;28;20553;-62
2022/03/09 04:34:53;;;;;;;20.92;11.95;;;4.40;51.00;;;;;;5051472;28;20105;-62
2022/03/09 04:37:19;;;;;;;19.80;12.32;;;4.30;51.00;;;;;;5052155;28;20025;-63
2022/03/09 04:40:04;;;;;;;18.30;11.93;;;4.30;51.10;;;;;;5051966;28;20025;-63
2022/03/09 04:42:30;;;;;;;22.17;12.82;;;4.30;51.20;;;;;;5051927;28;20100;-63
2022/03/09 04:44:56;;;;;;;20.02;11.63;;;4.30;51.20;;;;;;5033428;28;20120;-62
2022/03/09 04:47:22;;;;;;;18.50;12.20;;;4.30;51.30;;;;;;5052549;28;20057;-62
2022/03/09 04:49:50;;;;;;;17.77;11.73;;;4.30;51.50;;;;;;5033614;28;20021;-62
2022/03/09 04:52:17;;;;;;;16.90;11.63;;;4.30;51.70;;;;;;5051678;28;20020;-62
2022/03/09 04:54:43;;;;;;;19.83;12.23;;;4.30;51.80;;;;;;5050919;28;20434;-62
2022/03/09 04:57:08;;;;;;;20.23;12.85;;;4.20;51.70;;;;;;5051993;28;20029;-61
2022/03/09 04:59:34;;;;;;;19.70;12.45;;;4.30;52.50;;;;;;5051735;28;20025;-62
2022/03/09 05:02:00;;;;;;;20.30;12.23;;;4.30;51.90;;;;;;5050935;28;20025;-62
2022/03/09 05:04:25;;;;;;;19.40;12.50;;;4.30;51.80;;;;;;5051509;28;20090;-63
2022/03/09 05:06:51;;;;;;;20.83;12.68;;;4.30;51.60;;;;;;5033428;28;20035;-63
2022/03/09 05:09:17;;;;;;;17.67;12.65;;;4.40;51.60;;;;;;5033802;28;20029;-61
2022/03/09 05:11:42;;;;;;;20.30;12.23;;;4.40;51.50;;;;;;5032902;28;20024;-64
2022/03/09 05:14:08;;;;;;;20.33;12.60;;;4.40;51.60;;;;;;5051762;28;20032;-63
2022/03/09 05:16:34;;;;;;;19.38;11.80;;;4.40;51.40;;;;;;5051621;28;20025;-64
2022/03/09 05:19:00;;;;;;;17.55;12.63;;;4.40;51.30;;;;;;5032599;28;20111;-62
2022/03/09 05:21:25;;;;;;;23.70;13.23;;;4.40;51.20;;;;;;5032334;28;20098;-63
2022/03/09 05:23:51;;;;;;;24.58;12.63;;;4.50;51.10;;;;;;5052761;28;20442;-62
2022/03/09 05:26:17;;;;;;;20.05;13.13;;;4.50;51.10;;;;;;5070313;28;20111;-63
2022/03/09 05:28:42;;;;;;;21.17;12.75;;;4.50;51.20;;;;;;5069479;28;20063;-67
2022/03/09 05:31:08;;;;;;;22.90;12.75;;;4.50;50.90;;;;;;5071261;28;20035;-62
2022/03/09 05:33:34;;;;;;;23.23;13.27;;;4.60;50.90;;;;;;5069889;28;20127;-62
2022/03/09 05:36:00;;;;;;;27.88;13.90;;;4.60;50.90;;;;;;5070511;28;20105;-62
2022/03/09 05:38:25;;;;;;;22.30;12.88;;;4.50;50.90;;;;;;5067614;28;20088;-66
2022/03/09 05:40:51;;;;;;;23.70;13.60;;;4.60;50.90;;;;;;5071260;28;20488;-64
2022/03/09 05:43:17;;;;;;;23.23;12.70;;;4.60;50.90;;;;;;5071901;28;20062;-62
2022/03/09 05:45:42;;;;;;;21.70;13.32;;;4.50;51.30;;;;;;5070424;28;20054;-63
2022/03/09 05:48:08;;;;;;;24.40;13.68;;;4.40;51.40;;;;;;5053207;28;20028;-65
2022/03/09 05:50:35;;;;;;;22.63;13.90;;;4.50;51.50;;;;;;5070769;28;20024;-63
2022/03/09 05:53:01;;;;;;;21.92;13.38;;;4.50;51.40;;;;;;5069046;28;20027;-62
2022/03/09 05:55:27;;;;;;;23.95;12.82;;;4.50;51.30;;;;;;5070910;28;20032;-62
2022/03/09 05:57:52;;;;;;;27.08;13.02;;;4.50;51.10;;;;;;5069003;28;20051;-62
2022/03/09 06:00:18;;;;;;;23.58;12.35;;;4.50;51.10;;;;;;5070867;28;20025;-64
2022/03/09 06:02:44;;;;;;;23.58;12.43;;;4.60;50.90;;;;;;5068826;28;20146;-63
2022/03/09 06:05:10;;;;;;;20.25;12.88;;;4.70;50.70;;;;;;5075059;28;20376;-63
2022/03/09 06:07:36;;;;;;;20.85;12.82;;;4.80;50.40;;;;;;5074706;28;20079;-63
2022/03/09 06:10:02;;;;;;;19.48;12.70;;;4.80;50.10;;;;;;5074614;28;20257;-65
2022/03/09 06:12:28;;;;;;;27.38;12.80;;;4.90;49.80;;;;;;5057031;28;20036;-63
2022/03/09 06:14:55;;;;;;;24.40;13.13;;;5.00;49.60;;;;;;5073097;28;20029;-64
2022/03/09 06:17:21;;;;;;;24.50;12.90;;;5.20;49.50;;;;;;5075357;28;20028;-63
2022/03/09 06:19:46;;;;;;;32.17;13.93;;;5.30;49.10;;;;;;5073911;28;20026;-64
2022/03/09 06:22:12;;;;;;;28.10;13.55;;;5.40;49.20;;;;;;5073082;28;20056;-64
2022/03/09 06:24:38;;;;;;;21.27;12.60;;;5.60;48.40;;;;;;5073329;28;20131;-67
2022/03/09 06:27:04;;;;;;;20.83;12.38;;;5.80;47.90;;;;;;5073778;28;20033;-65
2022/03/09 06:29:30;;;;;;;26.08;12.73;;;6.00;47.50;;;;;;5074236;28;20498;-64
2022/03/09 06:31:55;;;;;;;24.00;12.45;;;6.10;46.80;;;;;;5073791;28;20103;-64
2022/03/09 06:34:21;;;;;;;31.75;12.95;;;6.20;46.60;;;;;;5074489;28;20036;-63
2022/03/09 06:36:47;;;;;;;22.20;12.73;;;6.30;46.20;;;;;;5073736;28;20028;-64
2022/03/09 06:39:15;;;;;;;20.75;13.07;;;6.40;45.90;;;;;;5074538;28;20029;-63
2022/03/09 06:41:42;;;;;;;21.00;11.85;;;6.60;45.40;;;;;;5073784;28;20429;-66
2022/03/09 06:44:12;;;;;;;23.08;11.95;;;6.70;45.30;;;;;;5074363;28;20036;-62
2022/03/09 06:46:39;;;;;;;22.75;12.95;;;6.80;45.00;;;;;;5074302;28;20028;-62
2022/03/09 06:49:05;;;;;;;22.20;12.32;;;6.80;44.70;;;;;;5071920;28;20021;-62
2022/03/09 06:51:31;;;;;;;25.35;12.82;;;6.90;44.80;;;;;;5073654;28;20024;-63
2022/03/09 06:53:58;;;;;;;26.67;13.70;;;7.00;44.40;;;;;;5073472;28;20025;-62
2022/03/09 06:56:24;;;;;;;37.00;13.93;;;7.10;44.00;;;;;;5089540;28;20055;-63
2022/03/09 06:58:49;;;;;;;20.65;12.32;;;7.30;43.90;;;;;;5073505;28;20047;-63
2022/03/09 07:01:15;;;;;;;24.13;12.27;;;7.50;43.70;;;;;;5074365;28;20103;-62
2022/03/09 07:03:41;;;;;;;23.23;13.07;;;7.80;42.60;;;;;;5073691;28;20028;-63
2022/03/09 07:06:07;;;;;;;22.95;13.25;;;8.00;42.30;;;;;;5074112;28;20051;-63
2022/03/09 07:08:34;;;;;;;21.45;12.23;;;8.30;41.60;;;;;;5074818;28;20453;-65
2022/03/09 07:11:00;;;;;;;23.00;14.43;;;8.50;41.50;;;;;;5072218;28;20289;-62
2022/03/09 07:13:27;;;;;;;20.40;13.35;;;10.20;41.70;;;;;;5072198;28;20059;-62
2022/03/09 07:15:53;;;;;;;22.63;13.00;;;12.50;39.20;;;;;;5072098;28;20025;-61
2022/03/09 07:18:19;;;;;;;18.90;13.30;;;14.40;35.40;;;;;;5056041;28;20032;-63
2022/03/09 07:20:45;;;;;;;19.30;13.00;;;15.80;32.50;;;;;;5069268;28;20260;-62
2022/03/09 07:23:12;;;;;;;21.17;14.05;;;17.70;31.60;;;;;;5053309;28;20078;-61
2022/03/09 07:25:38;;;;;;;19.52;13.02;;;19.70;28.90;;;;;;5053354;28;20029;-62
2022/03/09 07:28:05;;;;;;;26.55;13.05;;;21.20;27.40;;;;;;5052715;28;20118;-66
2022/03/09 07:30:31;;;;;;;14.30;11.50;;;21.90;26.30;;;;;;5053804;28;20033;-63
2022/03/09 07:32:57;;;;;;;23.02;12.95;;;21.80;25.40;;;;;;5053283;28;20040;-62
2022/03/09 07:35:23;;;;;;;18.05;11.98;;;22.00;24.90;;;;;;5053542;28;20025;-64
2022/03/09 07:37:51;;;;;;;21.98;12.18;;;21.90;24.80;;;;;;5035357;28;20025;-65
2022/03/09 07:40:17;;;;;;;18.73;12.55;;;21.30;24.80;;;;;;5003128;28;20129;-64
2022/03/09 07:42:43;;;;;;;16.92;12.15;;;21.10;25.40;;;;;;5035432;28;20078;-71
2022/03/09 07:45:10;;;;;;;20.75;12.68;;;20.80;24.90;;;;;;5035469;28;20082;-63
2022/03/09 07:47:36;;;;;;;18.15;11.15;;;20.00;25.20;;;;;;5053291;28;20033;-63
2022/03/09 07:50:04;;;;;;;18.60;11.68;;;18.90;25.70;;;;;;5034630;28;20036;-64
2022/03/09 07:52:30;;;;;;;22.95;12.55;;;17.70;26.30;;;;;;5034612;28;20025;-63
2022/03/09 07:54:56;;;;;;;23.05;12.95;;;17.30;27.10;;;;;;5034646;28;20036;-64
2022/03/09 07:57:21;;;;;;;26.27;12.13;;;17.50;27.40;;;;;;5052895;28;20024;-63
2022/03/09 07:59:47;;;;;;;15.88;11.63;;;17.80;26.90;;;;;;5052425;28;20056;-69
2022/03/09 08:02:13;;;;;;;18.35;12.05;;;17.20;27.10;;;;;;5034564;28;20381;-63
2022/03/09 08:04:39;;;;;;;19.38;11.25;;;16.30;27.70;;;;;;5035100;28;20051;-65
2022/03/09 08:07:04;;;;;;;15.88;11.55;;;15.40;28.40;;;;;;5052516;28;20351;-64
2022/03/09 08:09:30;;;;;;;20.33;12.80;;;14.90;28.80;;;;;;5052560;28;20029;-63
2022/03/09 08:11:56;;;;;;;20.50;11.95;;;14.30;29.40;;;;;;5052530;28;20033;-63
2022/03/09 08:14:21;;;;;;;19.55;11.68;;;13.90;30.00;;;;;;5052611;28;20067;-64
2022/03/09 08:16:48;;;;;;;22.95;12.77;;;13.50;30.40;;;;;;5034257;28;20021;-67
2022/03/09 08:19:14;;;;;;;20.88;12.07;;;13.20;31.60;;;;;;5049764;28;20024;-65
2022/03/09 08:21:40;;;;;;;22.00;13.23;;;13.00;31.30;;;;;;5050704;28;20052;-66
2022/03/09 08:24:06;;;;;;;18.02;12.43;;;12.80;31.70;;;;;;5034559;28;20028;-64
2022/03/09 08:26:32;;;;;;;19.75;12.73;;;12.60;32.00;;;;;;5051440;28;20292;-64
2022/03/09 08:28:58;;;;;;;18.13;11.82;;;12.60;32.30;;;;;;5051088;28;20091;-63
2022/03/09 08:31:24;;;;;;;18.10;11.80;;;12.60;32.50;;;;;;5051330;28;20446;-64
2022/03/09 08:33:49;;;;;;;21.85;11.82;;;12.60;32.60;;;;;;5051643;28;20036;-61
2022/03/09 08:36:15;;;;;;;19.77;11.98;;;12.70;32.70;;;;;;5051762;28;20483;-63
2022/03/09 08:38:41;;;;;;;19.27;11.15;;;13.00;32.40;;;;;;5050566;28;20158;-64
2022/03/09 08:41:07;;;;;;;17.67;10.88;;;13.20;32.10;;;;;;5033280;28;20359;-64
2022/03/09 08:43:33;;;;;;;20.58;11.43;;;13.30;31.90;;;;;;5033313;28;20212;-64
2022/03/09 08:45:58;;;;;;;31.98;12.65;;;13.40;31.90;;;;;;5048440;28;20417;-62
2022/03/09 08:48:26;;;;;;;22.23;11.52;;;13.30;32.00;;;;;;5049269;28;20426;-62
2022/03/09 08:50:53;;;;;;;21.25;11.15;;;13.30;32.10;;;;;;5050543;28;20074;-61
2022/03/09 08:53:20;;;;;;;21.10;11.38;;;13.40;31.80;;;;;;5033557;28;20128;-64
2022/03/09 08:55:46;;;;;;;17.63;11.65;;;13.50;31.50;;;;;;5049967;28;20028;-62
2022/03/09 08:58:12;;;;;;;15.63;10.85;;;13.40;31.70;;;;;;5032650;28;20067;-61
2022/03/09 09:00:39;;;;;;;17.88;11.63;;;13.40;31.80;;;;;;5032420;28;20052;-62
2022/03/09 09:03:05;;;;;;;21.30;11.57;;;13.20;31.60;;;;;;5033017;28;20480;-60
2022/03/09 09:05:30;;;;;;;17.02;12.23;;;13.10;32.00;;;;;;5049127;28;20063;-61
2022/03/09 09:07:56;;;;;;;22.50;11.57;;;13.10;32.10;;;;;;5049578;28;20036;-65
2022/03/09 09:10:22;;;;;;;20.00;10.93;;;13.20;32.10;;;;;;5031848;28;20033;-63
2022/03/09 09:12:50;;;;;;;27.15;12.30;;;13.00;32.10;;;;;;5033499;28;20036;-64
2022/03/09 09:15:16;;;;;;;17.23;11.35;;;12.90;32.20;;;;;;5031871;28;20108;-60
2022/03/09 09:17:41;;;;;;;16.92;11.25;;;12.80;32.10;;;;;;5050522;28;20416;-64
2022/03/09 09:20:09;;;;;;;16.98;11.07;;;12.60;32.40;;;;;;5049661;28;20029;-63
2022/03/09 09:22:34;;;;;;;16.40;11.18;;;12.50;32.70;;;;;;5050242;28;20037;-65
2022/03/09 09:25:01;;;;;;;19.70;11.50;;;12.60;32.90;;;;;;5033122;28;20033;-61
2022/03/09 09:27:27;;;;;;;19.70;12.38;;;12.60;32.70;;;;;;5049833;28;20116;-61
2022/03/09 09:29:53;;;;;;;22.17;12.07;;;12.60;33.00;;;;;;5031109;28;20163;-64
2022/03/09 09:32:18;;;;;;;21.13;11.40;;;12.60;33.00;;;;;;5048011;28;20116;-61
2022/03/09 09:34:44;;;;;;;23.88;11.13;;;12.80;32.70;;;;;;5050988;28;20029;-62
2022/03/09 09:37:10;;;;;;;20.58;10.52;;;12.90;32.30;;;;;;5048870;28;20520;-61
2022/03/09 09:39:36;;;;;;;23.95;11.48;;;13.00;32.10;;;;;;5031472;28;20452;-62
2022/03/09 09:42:02;;;;;;;16.52;10.75;;;12.90;32.30;;;;;;5049564;28;20029;-62
2022/03/09 09:44:28;;;;;;;18.17;9.85;;;12.90;32.30;;;;;;5033346;28;20064;-64
2022/03/09 09:46:55;;;;;;;19.85;10.32;;;12.70;32.40;;;;;;5050070;28;20043;-62
2022/03/09 09:49:24;;;;;;;18.85;11.18;;;12.60;32.60;;;;;;5049389;28;20394;-61
2022/03/09 09:51:51;;;;;;;16.20;10.50;;;12.60;32.80;;;;;;5049322;28;20021;-61
2022/03/09 09:54:18;;;;;;;20.77;10.00;;;12.60;33.10;;;;;;5049848;28;20039;-60
2022/03/09 09:56:44;;;;;;;15.98;10.25;;;12.50;33.70;;;;;;5049857;28;20403;-64
2022/03/09 09:59:11;;;;;;;17.45;9.77;;;12.60;33.80;;;;;;5048279;28;20100;-64
2022/03/09 10:01:37;;;;;;;21.90;10.63;;;12.60;33.20;;;;;;5030458;28;20036;-64
2022/03/09 10:04:03;;;;;;;21.20;9.43;;;12.60;33.40;;;;;;5047121;28;20253;-65
2022/03/09 10:06:30;;;;;;;29.48;10.73;;;12.70;33.50;;;;;;5050579;28;20133;-63
2022/03/09 10:09:03;;;;;;;17.38;9.32;;;12.70;33.60;;;;;;5030758;28;20029;-61
2022/03/09 10:11:48;;;;;;;17.17;10.20;;;12.80;33.50;;;;;;5032432;28;20021;-64
2022/03/09 10:14:15;;;;;;;15.82;9.10;;;13.00;33.50;;;;;;5050484;28;20032;-64
2022/03/09 10:17:01;;;;;;;15.02;8.77;;;13.10;33.30;;;;;;5033045;28;20132;-63
2022/03/09 10:19:38;;;;;;;18.38;10.27;;;13.20;33.30;;;;;;5048624;28;20043;-64
2022/03/09 10:22:24;;;;;;;17.85;9.68;;;13.20;33.20;;;;;;5049438;28;20045;-71
2022/03/09 10:24:51;;;;;;;17.65;8.48;;;13.30;33.20;;;;;;5032400;28;20052;-70
2022/03/09 10:27:41;;;;;;;16.48;8.90;;;13.30;33.30;;;;;;5016571;28;20134;-65
2022/03/09 10:30:10;;;;;;;14.95;8.25;;;13.40;33.10;;;;;;5050276;28;20707;-66
2022/03/09 10:32:52;;;;;;;18.80;8.15;;;13.50;33.20;;;;;;5050188;28;20029;-65
2022/03/09 10:35:42;;;;;;;13.65;7.82;;;13.50;33.10;;;;;;5050911;28;20496;-63
2022/03/09 10:38:15;;;;;;;12.70;8.40;;;13.20;33.30;;;;;;5050109;28;20268;-66
2022/03/09 10:40:44;;;;;;;21.80;8.15;;;13.10;33.50;;;;;;5050895;28;20025;-68
2022/03/09 10:43:14;;;;;;;16.25;8.55;;;13.20;33.90;;;;;;5049053;28;20060;-68
2022/03/09 10:46:05;;;;;;;18.65;9.18;;;13.40;33.90;;;;;;5049933;28;20470;-69
2022/03/09 10:48:54;;;;;;;20.13;9.30;;;13.50;33.20;;;;;;5050503;28;20481;-65
2022/03/09 10:51:35;;;;;;;18.83;8.73;;;13.60;33.20;;;;;;5036035;28;20471;-66
2022/03/09 10:54:04;;;;;;;20.30;9.00;;;13.80;33.00;;;;;;5053166;28;20040;-70
2022/03/09 10:56:30;;;;;;;20.75;9.48;;;13.70;33.10;;;;;;5033871;28;20029;-69
2022/03/09 10:58:56;;;;;;;20.08;8.65;;;13.50;33.60;;;;;;5052424;28;20473;-63
2022/03/09 11:01:23;;;;;;;21.25;8.43;;;13.40;34.10;;;;;;5034727;28;20121;-65
2022/03/09 11:03:52;;;;;;;20.05;11.68;;;13.50;34.40;;;;;;5050544;28;20500;-65
2022/03/09 11:06:20;;;;;;;22.63;9.70;;;13.80;34.20;;;;;;5051217;28;20473;-69
2022/03/09 11:08:45;;;;;;;16.88;9.40;;;13.80;34.10;;;;;;5032179;28;20025;-63
2022/03/09 11:11:14;;;;;;;28.08;13.27;;;14.00;34.10;;;;;;5033714;28;20032;-73
2022/03/09 11:13:40;;;;;;;19.30;9.30;;;14.10;33.90;;;;;;5053204;28;20033;-68
2022/03/09 11:16:08;;;;;;;13.43;7.22;;;14.10;33.90;;;;;;5053280;28;20100;-66
2022/03/09 11:18:36;;;;;;;11.02;6.63;;;14.20;33.80;;;;;;5050063;28;20074;-63
2022/03/09 11:21:05;;;;;;;9.73;6.13;;;14.20;33.60;;;;;;5051243;28;20049;-62
2022/03/09 11:23:33;;;;;;;9.25;6.65;;;14.00;33.80;;;;;;5053013;28;20052;-63
2022/03/09 11:26:07;;;;;;;10.60;6.88;;;13.80;33.70;;;;;;5052379;28;20036;-69
2022/03/09 11:28:42;;;;;;;14.07;7.53;;;13.60;34.10;;;;;;5035190;28;20052;-64
2022/03/09 11:31:10;;;;;;;12.35;7.07;;;13.50;34.30;;;;;;5035573;28;20045;-63
2022/03/09 11:33:45;;;;;;;12.68;6.93;;;13.50;34.50;;;;;;5052915;28;20029;-62
2022/03/09 11:36:23;;;;;;;11.80;7.30;;;13.50;34.50;;;;;;5053828;28;20025;-64
2022/03/09 11:39:17;;;;;;;10.73;6.93;;;13.40;34.60;;;;;;5052630;28;20075;-66
2022/03/09 11:41:42;;;;;;;12.57;7.07;;;13.30;34.80;;;;;;5034239;28;20025;-69
2022/03/09 11:44:29;;;;;;;13.38;7.32;;;13.20;34.90;;;;;;5053118;28;20469;-68
2022/03/09 11:47:01;;;;;;;19.35;7.90;;;13.20;35.10;;;;;;5052104;28;20037;-70
2022/03/09 11:49:54;;;;;;;11.57;7.20;;;13.20;35.20;;;;;;5053102;28;20140;-61
2022/03/09 11:52:26;;;;;;;15.38;7.60;;;13.20;35.40;;;;;;5052822;28;20473;-62
2022/03/09 11:54:56;;;;;;;13.98;7.03;;;13.30;35.40;;;;;;5052301;28;20033;-66
2022/03/09 11:57:23;;;;;;;13.57;7.50;;;13.30;35.30;;;;;;5048896;28;20044;-64
2022/03/09 11:59:58;;;;;;;12.35;6.65;;;13.40;35.30;;;;;;5049846;28;20470;-64
2022/03/09 12:02:39;;;;;;;10.98;7.60;;;13.30;35.20;;;;;;5032252;28;20044;-64
2022/03/09 12:05:07;;;;;;;12.25;7.53;;;13.40;35.00;;;;;;5032380;28;20028;-64
2022/03/09 12:07:34;;;;;;;16.23;8.40;;;13.30;35.20;;;;;;5052701;28;20422;-65
2022/03/09 12:10:09;;;;;;;18.77;7.85;;;13.50;35.40;;;;;;5032108;28;20025;-64
2022/03/09 12:12:38;;;;;;;21.67;7.55;;;13.60;35.20;;;;;;5031613;28;20029;-65
2022/03/09 12:15:08;;;;;;;15.27;7.45;;;13.60;35.10;;;;;;5031718;28;20079;-64
2022/03/09 12:17:50;;;;;;;12.55;7.32;;;13.70;35.20;;;;;;5032245;28;20029;-65
2022/03/09 12:20:27;;;;;;;13.77;7.28;;;13.90;34.80;;;;;;5051039;28;20025;-68
2022/03/09 12:22:56;;;;;;;18.15;8.52;;;14.00;34.60;;;;;;5034744;28;20041;-69
2022/03/09 12:25:51;;;;;;;12.13;7.60;;;13.90;34.60;;;;;;5033007;28;20036;-64
2022/03/09 12:30:53;;;;;;;19.98;9.10;;;14.10;34.40;;;;;;5049207;28;20112;-63
2022/03/09 12:33:26;;;;;;;9.75;7.05;;;14.00;34.30;;;;;;5047850;28;20462;-66
2022/03/09 12:35:53;;;;;;;21.83;8.47;;;13.90;34.30;;;;;;5050920;28;20496;-66
2022/03/09 12:38:19;;;;;;;25.75;12.85;;;13.90;34.50;;;;;;5034632;28;20024;-66
2022/03/09 12:40:45;;;;;;;12.88;7.65;;;13.70;34.70;;;;;;5033480;28;20029;-66